Time;durP1;ratioP1;P1;durP2;ratioP2;P2;SDS_P1;SDS_P2;PMS_P1;PMS_P2;Temp;Humidity;BMP_temperature;BMP_pressure;BME280_temperature;BME280_humidity;BME280_pressure;Samples;Min_cycle;Max_cycle;Signal;HPM_P1;HPM_P2
2022/01/17 00:00:26;;;;;;;6.22;5.47;;;;;;;;;;5077420;28;20258;-83
2022/01/17 00:02:54;;;;;;;8.68;6.68;;;;;;;;;;5076366;28;20227;-84
2022/01/17 00:05:22;;;;;;;8.60;6.45;;;;;;;;;;5077096;28;20196;-83
2022/01/17 00:07:49;;;;;;;7.32;6.63;;;;;;;;;;5077164;28;20205;-84
2022/01/17 00:10:17;;;;;;;8.55;7.20;;;;;;;;;;5076852;28;20212;-83
2022/01/17 00:12:46;;;;;;;7.43;6.13;;;;;;;;;;5076153;28;20232;-84
2022/01/17 00:15:20;;;;;;;6.10;5.55;;;;;;;;;;5076638;28;20204;-84
2022/01/17 00:17:52;;;;;;;7.10;6.25;;;;;;;;;;5076486;28;20203;-83
2022/01/17 00:20:26;;;;;;;8.30;6.45;;;;;;;;;;5076647;28;20212;-84
2022/01/17 00:22:54;;;;;;;6.65;5.90;;;;;;;;;;5076140;28;20255;-83
2022/01/17 00:25:21;;;;;;;6.30;5.50;;;;;;;;;;5077336;28;20254;-82
2022/01/17 00:27:49;;;;;;;6.50;5.90;;;;;;;;;;5076117;28;20279;-84
2022/01/17 00:30:16;;;;;;;8.00;5.70;;;;;;;;;;5076320;28;20205;-84
2022/01/17 00:32:43;;;;;;;7.70;6.57;;;;;;;;;;5076520;28;20235;-83
2022/01/17 00:35:11;;;;;;;8.52;6.38;;;;;;;;;;5075906;28;20197;-83
2022/01/17 00:37:40;;;;;;;6.28;5.53;;;;;;;;;;5076247;28;20200;-83
2022/01/17 00:40:09;;;;;;;7.30;5.40;;;;;;;;;;5076196;28;20220;-84
2022/01/17 00:42:37;;;;;;;5.95;5.35;;;;;;;;;;5076046;28;20229;-84
2022/01/17 00:45:07;;;;;;;7.88;6.25;;;;;;;;;;5076477;28;20201;-83
2022/01/17 00:47:35;;;;;;;5.05;4.55;;;;;;;;;;5077488;28;20208;-84
2022/01/17 00:50:03;;;;;;;5.55;4.95;;;;;;;;;;5076014;28;20197;-83
2022/01/17 00:52:30;;;;;;;6.30;4.90;;;;;;;;;;5075895;28;20216;-84
2022/01/17 00:54:58;;;;;;;6.38;5.43;;;;;;;;;;5076019;28;20285;-84
2022/01/17 00:57:26;;;;;;;5.45;4.95;;;;;;;;;;5075634;28;20212;-83
2022/01/17 00:59:53;;;;;;;7.43;5.82;;;;;;;;;;5075941;28;20225;-83
2022/01/17 01:02:20;;;;;;;6.63;5.43;;;;;;;;;;5075927;28;20225;-85
2022/01/17 01:04:48;;;;;;;6.57;5.93;;;;;;;;;;5075799;28;20255;-83
2022/01/17 01:07:15;;;;;;;6.07;5.40;;;;;;;;;;5075971;28;20266;-83
2022/01/17 01:09:52;;;;;;;7.22;4.95;;;;;;;;;;5076159;28;20197;-84
2022/01/17 01:12:20;;;;;;;5.97;4.70;;;;;;;;;;5075445;28;20278;-83
2022/01/17 01:14:48;;;;;;;5.75;5.13;;;;;;;;;;5075430;28;20205;-83
2022/01/17 01:17:30;;;;;;;6.70;5.97;;;;;;;;;;5075443;28;20201;-84
2022/01/17 01:20:06;;;;;;;6.70;5.05;;;;;;;;;;5076291;28;20260;-84
2022/01/17 01:28:05;;;;;;;7.18;5.63;;;;;;;;;;5076573;28;20199;-84
2022/01/17 01:30:39;;;;;;;8.38;5.85;;;;;;;;;;5076051;28;20209;-84
2022/01/17 01:33:06;;;;;;;8.13;6.75;;;;;;;;;;5075511;28;20267;-83
2022/01/17 01:35:42;;;;;;;8.38;6.30;;;;;;;;;;5073739;28;20204;-82
2022/01/17 01:38:09;;;;;;;7.57;6.75;;;;;;;;;;5074232;28;20205;-82
2022/01/17 01:40:37;;;;;;;6.03;4.40;;;;;;;;;;5074370;28;20224;-82
2022/01/17 01:43:05;;;;;;;8.00;6.22;;;;;;;;;;5073468;28;20216;-82
2022/01/17 01:45:33;;;;;;;5.85;5.10;;;;;;;;;;5074319;28;20220;-82
2022/01/17 01:48:00;;;;;;;9.35;6.68;;;;;;;;;;5073821;28;20204;-82
2022/01/17 01:50:28;;;;;;;8.65;5.53;;;;;;;;;;5073880;28;20201;-82
2022/01/17 01:52:55;;;;;;;7.50;5.97;;;;;;;;;;5073670;28;20221;-82
2022/01/17 01:55:22;;;;;;;7.35;6.65;;;;;;;;;;5073970;28;20610;-82
2022/01/17 01:57:50;;;;;;;7.78;5.10;;;;;;;;;;5073499;28;20197;-81
2022/01/17 02:00:20;;;;;;;13.88;7.10;;;;;;;;;;5073634;28;20641;-81
2022/01/17 02:02:47;;;;;;;13.23;6.82;;;;;;;;;;5073800;28;20653;-82
2022/01/17 02:05:14;;;;;;;13.57;7.20;;;;;;;;;;5073892;28;20204;-82
2022/01/17 02:07:45;;;;;;;7.90;6.10;;;;;;;;;;5074120;28;20201;-81
2022/01/17 02:10:13;;;;;;;6.95;5.65;;;;;;;;;;5073505;28;20193;-82
2022/01/17 02:12:41;;;;;;;5.82;4.78;;;;;;;;;;5073286;28;20221;-82
2022/01/17 02:15:13;;;;;;;8.65;5.57;;;;;;;;;;5073053;28;20679;-82
2022/01/17 02:17:45;;;;;;;4.88;4.10;;;;;;;;;;5074035;28;20204;-81
2022/01/17 02:20:20;;;;;;;5.05;3.83;;;;;;;;;;5073477;28;20715;-82
2022/01/17 02:22:48;;;;;;;5.80;3.70;;;;;;;;;;5073337;28;20220;-82
2022/01/17 02:25:15;;;;;;;3.55;3.15;;;;;;;;;;5073578;28;20718;-82
2022/01/17 02:27:43;;;;;;;5.88;3.95;;;;;;;;;;5073617;28;20571;-82
2022/01/17 02:30:16;;;;;;;4.00;3.15;;;;;;;;;;5073739;28;20228;-82
2022/01/17 02:32:44;;;;;;;3.60;3.03;;;;;;;;;;5073191;28;20315;-82
2022/01/17 02:35:13;;;;;;;4.05;3.13;;;;;;;;;;5072342;28;20231;-82
2022/01/17 02:37:42;;;;;;;3.85;2.35;;;;;;;;;;5073058;28;20197;-81
2022/01/17 02:40:11;;;;;;;4.05;3.28;;;;;;;;;;5073373;28;20221;-81
2022/01/17 02:42:38;;;;;;;3.03;1.90;;;;;;;;;;5072696;28;20232;-82
2022/01/17 02:45:12;;;;;;;2.38;2.17;;;;;;;;;;5073095;28;20204;-81
2022/01/17 02:47:40;;;;;;;2.45;2.25;;;;;;;;;;5073605;28;20209;-81
2022/01/17 02:50:09;;;;;;;5.03;2.15;;;;;;;;;;5073059;28;20208;-82
2022/01/17 02:52:36;;;;;;;3.20;2.63;;;;;;;;;;5073075;28;20290;-82
2022/01/17 02:55:06;;;;;;;2.88;2.47;;;;;;;;;;5072972;28;20201;-81
2022/01/17 02:57:34;;;;;;;4.80;3.05;;;;;;;;;;5072924;28;20201;-82
2022/01/17 03:00:01;;;;;;;3.75;1.73;;;;;;;;;;5072888;28;20221;-81
2022/01/17 03:02:28;;;;;;;6.07;3.28;;;;;;;;;;5072047;28;20229;-81
2022/01/17 03:04:55;;;;;;;1.95;1.50;;;;;;;;;;5073143;28;20629;-81
2022/01/17 03:07:23;;;;;;;3.00;2.00;;;;;;;;;;5073200;28;20730;-81
2022/01/17 03:10:01;;;;;;;3.47;2.63;;;;;;;;;;5072421;28;20212;-81
2022/01/17 03:12:30;;;;;;;4.80;2.80;;;;;;;;;;5072136;28;20652;-82
2022/01/17 03:14:58;;;;;;;3.22;2.70;;;;;;;;;;5072972;28;20271;-81
2022/01/17 03:17:25;;;;;;;6.38;4.07;;;;;;;;;;5072588;28;20196;-81
2022/01/17 03:19:52;;;;;;;4.78;3.53;;;;;;;;;;5072467;28;20266;-81
2022/01/17 03:22:20;;;;;;;8.43;3.38;;;;;;;;;;5072032;28;20225;-82
2022/01/17 03:24:47;;;;;;;8.07;3.67;;;;;;;;;;5072510;28;20443;-81
2022/01/17 03:27:14;;;;;;;7.40;3.88;;;;;;;;;;5072582;28;20324;-81
2022/01/17 03:29:43;;;;;;;19.30;5.57;;;;;;;;;;5072624;28;20201;-81
2022/01/17 03:32:10;;;;;;;9.95;4.60;;;;;;;;;;5071744;28;20376;-81
2022/01/17 03:34:39;;;;;;;7.55;5.30;;;;;;;;;;5073655;28;20205;-81
2022/01/17 03:37:06;;;;;;;9.65;4.95;;;;;;;;;;5073204;28;20200;-82
2022/01/17 03:39:34;;;;;;;4.68;3.40;;;;;;;;;;5072998;28;20205;-81
2022/01/17 03:42:01;;;;;;;8.75;5.35;;;;;;;;;;5072568;28;20204;-82
2022/01/17 03:44:29;;;;;;;11.05;5.53;;;;;;;;;;5072799;28;20560;-82
2022/01/17 03:46:57;;;;;;;6.45;4.15;;;;;;;;;;5074105;28;20205;-82
2022/01/17 03:49:25;;;;;;;5.47;3.75;;;;;;;;;;5076932;28;20203;-82
2022/01/17 03:51:52;;;;;;;7.80;4.60;;;;;;;;;;5076409;28;20193;-80
2022/01/17 03:54:19;;;;;;;6.03;4.03;;;;;;;;;;5076683;28;20201;-82
2022/01/17 03:56:46;;;;;;;5.97;5.07;;;;;;;;;;5077269;28;20234;-81
2022/01/17 03:59:14;;;;;;;6.45;4.78;;;;;;;;;;5077400;28;20337;-82
2022/01/17 04:01:41;;;;;;;6.25;4.53;;;;;;;;;;5076426;28;20303;-81
2022/01/17 04:04:10;;;;;;;5.65;4.25;;;;;;;;;;5076990;28;20246;-81
2022/01/17 04:06:37;;;;;;;7.72;4.40;;;;;;;;;;5076295;28;20197;-80
2022/01/17 04:09:05;;;;;;;7.75;4.50;;;;;;;;;;5076358;28;20676;-81
2022/01/17 04:11:32;;;;;;;8.35;4.65;;;;;;;;;;5075899;28;20563;-81
2022/01/17 04:13:59;;;;;;;10.85;4.72;;;;;;;;;;5077274;28;20224;-81
2022/01/17 04:16:27;;;;;;;8.55;4.72;;;;;;;;;;5075912;28;20201;-80
2022/01/17 04:18:55;;;;;;;6.55;4.72;;;;;;;;;;5076081;28;20240;-81
2022/01/17 04:21:27;;;;;;;10.13;4.72;;;;;;;;;;5075726;28;20223;-82
2022/01/17 04:23:55;;;;;;;4.47;4.07;;;;;;;;;;5075292;28;20253;-81
2022/01/17 04:26:22;;;;;;;10.35;5.35;;;;;;;;;;5076413;28;20208;-80
2022/01/17 04:28:49;;;;;;;7.68;4.80;;;;;;;;;;5075337;28;20665;-81
2022/01/17 04:31:17;;;;;;;6.30;4.32;;;;;;;;;;5075942;28;20204;-80
2022/01/17 04:33:44;;;;;;;6.57;4.00;;;;;;;;;;5075068;28;20282;-81
2022/01/17 04:36:11;;;;;;;7.72;5.13;;;;;;;;;;5074824;28;20205;-80
2022/01/17 04:38:40;;;;;;;7.22;4.35;;;;;;;;;;5074885;28;20197;-82
2022/01/17 04:41:14;;;;;;;13.00;3.75;;;;;;;;;;5075809;28;20225;-81
2022/01/17 04:43:57;;;;;;;6.43;4.05;;;;;;;;;;5075821;28;20220;-81
2022/01/17 04:46:24;;;;;;;4.28;2.60;;;;;;;;;;5075487;28;20205;-82
2022/01/17 04:48:51;;;;;;;6.53;3.80;;;;;;;;;;5077992;28;20209;-81
2022/01/17 04:51:19;;;;;;;3.97;2.90;;;;;;;;;;5081979;28;20201;-82
2022/01/17 04:54:07;;;;;;;5.00;3.55;;;;;;;;;;5083603;28;20228;-81
2022/01/17 04:56:34;;;;;;;6.95;4.05;;;;;;;;;;5083793;28;20201;-82
2022/01/17 04:59:02;;;;;;;5.10;3.40;;;;;;;;;;5076433;28;20209;-81
2022/01/17 05:01:29;;;;;;;7.70;3.33;;;;;;;;;;5077376;28;20595;-81
2022/01/17 05:03:56;;;;;;;7.95;4.53;;;;;;;;;;5075806;28;20220;-81
2022/01/17 05:06:23;;;;;;;5.22;4.07;;;;;;;;;;5075904;28;20261;-81
2022/01/17 05:08:52;;;;;;;7.03;3.40;;;;;;;;;;5076248;28;20220;-81
2022/01/17 05:11:24;;;;;;;6.35;3.83;;;;;;;;;;5075914;28;20251;-82
2022/01/17 05:13:51;;;;;;;7.30;4.97;;;;;;;;;;5075790;28;20225;-82
2022/01/17 05:16:20;;;;;;;5.38;3.30;;;;;;;;;;5077697;28;20211;-81
2022/01/17 05:21:32;;;;;;;8.27;3.25;;;;;;;;;;5075205;28;20719;-81
2022/01/17 05:24:01;;;;;;;4.35;2.50;;;;;;;;;;5074933;28;20225;-81
2022/01/17 05:26:28;;;;;;;8.25;3.97;;;;;;;;;;5076516;28;20204;-82
2022/01/17 05:28:55;;;;;;;8.13;4.28;;;;;;;;;;5077081;28;20208;-82
2022/01/17 05:31:22;;;;;;;5.88;3.15;;;;;;;;;;5078142;28;20727;-82
2022/01/17 05:33:50;;;;;;;9.57;3.50;;;;;;;;;;5075508;28;20240;-81
2022/01/17 05:36:17;;;;;;;3.85;3.28;;;;;;;;;;5075316;28;20588;-82
2022/01/17 05:38:44;;;;;;;6.10;3.63;;;;;;;;;;5075431;28;20637;-82
2022/01/17 05:41:13;;;;;;;9.18;3.90;;;;;;;;;;5074947;28;20715;-81
2022/01/17 05:43:40;;;;;;;5.63;3.35;;;;;;;;;;5075346;28;20261;-81
2022/01/17 05:46:08;;;;;;;8.75;5.18;;;;;;;;;;5075931;28;20201;-82
2022/01/17 05:48:35;;;;;;;7.22;3.50;;;;;;;;;;5084897;28;20197;-83
2022/01/17 05:51:03;;;;;;;4.70;3.25;;;;;;;;;;5084710;28;20286;-82
2022/01/17 05:53:30;;;;;;;8.27;3.95;;;;;;;;;;5084229;28;20221;-83
2022/01/17 05:55:57;;;;;;;7.15;3.50;;;;;;;;;;5085550;28;20244;-81
2022/01/17 05:58:26;;;;;;;5.75;3.42;;;;;;;;;;5084523;28;20201;-82
2022/01/17 06:00:53;;;;;;;5.63;3.65;;;;;;;;;;5084064;28;20205;-82
2022/01/17 06:03:20;;;;;;;6.55;4.22;;;;;;;;;;5083896;28;20221;-82
2022/01/17 06:05:48;;;;;;;10.85;4.85;;;;;;;;;;5085283;28;20201;-82
2022/01/17 06:08:15;;;;;;;8.93;4.53;;;;;;;;;;5085168;28;20201;-82
2022/01/17 06:10:42;;;;;;;7.50;3.72;;;;;;;;;;5084300;28;20197;-83
2022/01/17 06:13:10;;;;;;;8.10;3.95;;;;;;;;;;5084731;28;20217;-81
2022/01/17 06:15:38;;;;;;;8.00;4.00;;;;;;;;;;5081962;28;20205;-82
2022/01/17 06:18:06;;;;;;;11.85;4.57;;;;;;;;;;5084037;28;20201;-82
2022/01/17 06:20:33;;;;;;;7.25;4.20;;;;;;;;;;5083947;28;20212;-84
2022/01/17 06:23:00;;;;;;;5.57;3.97;;;;;;;;;;5084495;28;20212;-82
2022/01/17 06:25:27;;;;;;;8.45;4.43;;;;;;;;;;5084525;28;20604;-82
2022/01/17 06:27:55;;;;;;;7.72;4.28;;;;;;;;;;5084104;28;20211;-82
2022/01/17 06:30:22;;;;;;;7.35;4.03;;;;;;;;;;5084071;28;20660;-83
2022/01/17 06:32:51;;;;;;;6.38;4.05;;;;;;;;;;5085115;28;20228;-82
2022/01/17 06:35:18;;;;;;;5.90;3.75;;;;;;;;;;5084669;28;20205;-83
2022/01/17 06:37:46;;;;;;;9.23;4.07;;;;;;;;;;5083759;28;20197;-82
2022/01/17 06:40:14;;;;;;;8.82;4.60;;;;;;;;;;5083924;28;20205;-82
2022/01/17 06:42:42;;;;;;;10.55;3.90;;;;;;;;;;5084524;28;20225;-82
2022/01/17 06:45:13;;;;;;;9.05;5.18;;;;;;;;;;5081589;28;20235;-81
2022/01/17 06:47:41;;;;;;;9.15;5.38;;;;;;;;;;5083507;28;20209;-82
2022/01/17 06:50:11;;;;;;;9.88;6.43;;;;;;;;;;5084920;28;20227;-81
2022/01/17 06:52:39;;;;;;;8.40;4.85;;;;;;;;;;5084498;28;20209;-81
2022/01/17 06:55:07;;;;;;;7.07;4.70;;;;;;;;;;5084563;28;20201;-82
2022/01/17 06:57:34;;;;;;;7.60;4.63;;;;;;;;;;5083313;28;20684;-83
2022/01/17 07:00:02;;;;;;;9.52;5.03;;;;;;;;;;5082696;28;20204;-83
2022/01/17 07:02:29;;;;;;;9.45;4.68;;;;;;;;;;5084655;28;20228;-83
2022/01/17 07:04:56;;;;;;;8.02;4.15;;;;;;;;;;5084711;28;20201;-82
2022/01/17 07:07:25;;;;;;;9.10;4.93;;;;;;;;;;5083915;28;20628;-84
2022/01/17 07:09:52;;;;;;;11.35;3.53;;;;;;;;;;5084501;28;20197;-81
2022/01/17 07:12:19;;;;;;;7.07;4.28;;;;;;;;;;5083297;28;20223;-82
2022/01/17 07:14:46;;;;;;;10.13;4.53;;;;;;;;;;5083142;28;20189;-82
2022/01/17 07:17:14;;;;;;;6.25;3.67;;;;;;;;;;5084906;28;20288;-82
2022/01/17 07:19:41;;;;;;;5.47;3.13;;;;;;;;;;5085935;28;20205;-82
2022/01/17 07:22:10;;;;;;;4.47;3.50;;;;;;;;;;5088483;28;20251;-81
2022/01/17 07:24:39;;;;;;;8.75;3.40;;;;;;;;;;5089376;28;20201;-81
2022/01/17 07:27:06;;;;;;;6.80;4.00;;;;;;;;;;5089596;28;20201;-82
2022/01/17 07:29:34;;;;;;;7.38;3.42;;;;;;;;;;5088248;28;20208;-82
2022/01/17 07:32:01;;;;;;;6.50;3.30;;;;;;;;;;5089349;28;20205;-82
2022/01/17 07:34:28;;;;;;;9.07;4.13;;;;;;;;;;5089162;28;20207;-81
2022/01/17 07:36:56;;;;;;;8.57;3.50;;;;;;;;;;5089912;28;20209;-82
2022/01/17 07:39:23;;;;;;;8.57;4.10;;;;;;;;;;5089640;28;20201;-81
2022/01/17 07:41:51;;;;;;;5.00;3.30;;;;;;;;;;5091462;28;20200;-83
2022/01/17 07:44:20;;;;;;;8.88;4.97;;;;;;;;;;5089149;28;20228;-81
2022/01/17 07:46:50;;;;;;;6.75;4.15;;;;;;;;;;5087677;28;20235;-83
2022/01/17 07:49:20;;;;;;;8.40;5.03;;;;;;;;;;5089479;28;20648;-82
2022/01/17 07:51:51;;;;;;;7.38;3.83;;;;;;;;;;5090268;28;20221;-82
2022/01/17 07:54:18;;;;;;;8.35;4.28;;;;;;;;;;5090615;28;20203;-83
2022/01/17 07:56:47;;;;;;;6.15;5.32;;;;;;;;;;5089325;28;20212;-82
2022/01/17 07:59:15;;;;;;;9.15;4.50;;;;;;;;;;5089392;28;20742;-82
2022/01/17 08:01:43;;;;;;;3.85;3.50;;;;;;;;;;5088882;28;20212;-82
2022/01/17 08:04:12;;;;;;;5.72;4.60;;;;;;;;;;5089601;28;20642;-82
2022/01/17 08:06:40;;;;;;;8.60;4.07;;;;;;;;;;5088442;28;20205;-83
2022/01/17 08:09:10;;;;;;;5.55;3.45;;;;;;;;;;5088954;28;20200;-83
2022/01/17 08:11:38;;;;;;;7.28;3.70;;;;;;;;;;5089011;28;20213;-83
2022/01/17 08:14:06;;;;;;;5.97;3.17;;;;;;;;;;5089474;28;20224;-82
2022/01/17 08:16:35;;;;;;;6.25;3.25;;;;;;;;;;5088637;28;20683;-83
2022/01/17 08:19:03;;;;;;;5.25;3.22;;;;;;;;;;5088615;28;20205;-83
2022/01/17 08:21:30;;;;;;;4.22;3.40;;;;;;;;;;5087575;28;20600;-83
2022/01/17 08:23:59;;;;;;;6.20;3.95;;;;;;;;;;5087624;28;20221;-84
2022/01/17 08:26:26;;;;;;;6.95;3.05;;;;;;;;;;5087837;28;20295;-83
2022/01/17 08:28:54;;;;;;;6.53;3.55;;;;;;;;;;5087730;28;20197;-82
2022/01/17 08:31:21;;;;;;;7.72;3.28;;;;;;;;;;5087963;28;20197;-83
2022/01/17 08:33:50;;;;;;;5.03;3.33;;;;;;;;;;5086995;28;20605;-82
2022/01/17 08:36:19;;;;;;;5.05;3.15;;;;;;;;;;5088309;28;20208;-86
2022/01/17 08:38:46;;;;;;;4.13;3.03;;;;;;;;;;5088357;28;20614;-84
2022/01/17 08:41:14;;;;;;;5.93;3.92;;;;;;;;;;5088932;28;20231;-83
2022/01/17 08:43:41;;;;;;;4.38;2.90;;;;;;;;;;5088698;28;20221;-83
2022/01/17 08:46:08;;;;;;;13.68;4.00;;;;;;;;;;5088247;28;20211;-85
2022/01/17 08:48:36;;;;;;;5.22;3.33;;;;;;;;;;5088715;28;20231;-83
2022/01/17 08:51:05;;;;;;;4.38;2.72;;;;;;;;;;5088833;28;20197;-83
2022/01/17 08:53:33;;;;;;;5.00;3.08;;;;;;;;;;5088634;28;20224;-83
2022/01/17 08:56:00;;;;;;;3.72;2.53;;;;;;;;;;5089950;28;20208;-83
2022/01/17 08:58:28;;;;;;;5.20;2.75;;;;;;;;;;5089230;28;20212;-83
2022/01/17 09:00:56;;;;;;;4.90;3.25;;;;;;;;;;5089067;28;20201;-83
2022/01/17 09:03:24;;;;;;;2.60;2.22;;;;;;;;;;5089412;28;20229;-83
2022/01/17 09:05:52;;;;;;;7.22;2.83;;;;;;;;;;5089352;28;20201;-83
2022/01/17 09:08:22;;;;;;;4.05;2.10;;;;;;;;;;5089789;28;20213;-82
2022/01/17 09:10:51;;;;;;;3.05;2.58;;;;;;;;;;5089916;28;20200;-81
2022/01/17 09:13:19;;;;;;;3.65;2.40;;;;;;;;;;5088906;28;20281;-81
2022/01/17 09:15:46;;;;;;;4.20;2.60;;;;;;;;;;5089241;28;20232;-82
2022/01/17 09:18:14;;;;;;;3.45;2.72;;;;;;;;;;5089072;28;20205;-82
2022/01/17 09:20:42;;;;;;;3.10;2.75;;;;;;;;;;5088473;28;20266;-83
2022/01/17 09:23:09;;;;;;;8.13;2.78;;;;;;;;;;5089028;28;20236;-82
2022/01/17 09:25:38;;;;;;;4.72;2.53;;;;;;;;;;5088887;28;20208;-83
2022/01/17 09:28:06;;;;;;;4.05;2.60;;;;;;;;;;5088611;28;20258;-82
2022/01/17 09:30:33;;;;;;;5.28;2.72;;;;;;;;;;5088551;28;20205;-82
2022/01/17 09:33:00;;;;;;;2.30;2.10;;;;;;;;;;5087946;28;20229;-82
2022/01/17 09:35:28;;;;;;;6.65;2.53;;;;;;;;;;5088557;28;20695;-82
2022/01/17 09:37:55;;;;;;;2.92;2.63;;;;;;;;;;5088655;28;20208;-81
2022/01/17 09:40:23;;;;;;;3.88;2.92;;;;;;;;;;5088567;28;20242;-81
2022/01/17 09:42:51;;;;;;;2.75;2.25;;;;;;;;;;5088169;28;20221;-81
2022/01/17 09:45:23;;;;;;;3.55;2.47;;;;;;;;;;5087661;28;20224;-82
2022/01/17 09:47:50;;;;;;;2.97;2.53;;;;;;;;;;5089161;28;20219;-81
2022/01/17 09:50:22;;;;;;;3.28;3.05;;;;;;;;;;5088787;28;20209;-81
2022/01/17 09:52:53;;;;;;;3.70;2.53;;;;;;;;;;5087807;28;20493;-82
2022/01/17 09:55:23;;;;;;;9.10;3.33;;;;;;;;;;5087606;28;20672;-82
2022/01/17 09:57:54;;;;;;;2.85;2.63;;;;;;;;;;5087108;28;20292;-82
2022/01/17 10:00:26;;;;;;;2.58;2.38;;;;;;;;;;5086951;28;20205;-82
2022/01/17 10:02:54;;;;;;;3.13;2.80;;;;;;;;;;5087336;28;20231;-82
2022/01/17 10:05:22;;;;;;;3.20;2.10;;;;;;;;;;5087099;28;20711;-81
2022/01/17 10:07:56;;;;;;;2.35;2.15;;;;;;;;;;5087922;28;20208;-82
2022/01/17 10:10:43;;;;;;;2.10;1.90;;;;;;;;;;5087615;28;20210;-82
2022/01/17 10:13:18;;;;;;;2.60;2.40;;;;;;;;;;5087374;28;20239;-82
2022/01/17 10:16:05;;;;;;;2.58;2.38;;;;;;;;;;5086086;28;20657;-81
2022/01/17 10:18:37;;;;;;;2.75;2.55;;;;;;;;;;5086802;28;20197;-81
2022/01/17 10:21:10;;;;;;;4.28;2.85;;;;;;;;;;5086641;28;20235;-81
2022/01/17 10:24:00;;;;;;;3.50;3.20;;;;;;;;;;5086119;28;20260;-82
2022/01/17 10:26:53;;;;;;;4.38;3.97;;;;;;;;;;5087023;28;20197;-81
2022/01/17 10:29:41;;;;;;;4.25;3.45;;;;;;;;;;5087059;28;20201;-83
2022/01/17 10:35:08;;;;;;;3.17;2.42;;;;;;;;;;5088696;28;20281;-81
2022/01/17 10:37:36;;;;;;;2.45;2.20;;;;;;;;;;5089087;28;20205;-82
2022/01/17 10:40:07;;;;;;;2.92;2.72;;;;;;;;;;5088106;28;20204;-82
2022/01/17 10:42:41;;;;;;;2.38;2.28;;;;;;;;;;5088428;28;20221;-83
2022/01/17 10:45:13;;;;;;;2.85;2.65;;;;;;;;;;5088568;28;20220;-82
2022/01/17 10:47:43;;;;;;;4.15;3.80;;;;;;;;;;5088547;28;20559;-82
2022/01/17 10:50:13;;;;;;;2.42;2.22;;;;;;;;;;5088832;28;20226;-82
2022/01/17 10:52:43;;;;;;;2.78;2.58;;;;;;;;;;5086984;28;20247;-82
2022/01/17 10:55:15;;;;;;;2.28;2.10;;;;;;;;;;5087276;28;20200;-84
2022/01/17 10:57:47;;;;;;;2.08;1.88;;;;;;;;;;5090967;28;20467;-83
2022/01/17 11:00:19;;;;;;;2.53;2.33;;;;;;;;;;5091057;28;20687;-83
2022/01/17 11:02:50;;;;;;;2.55;2.35;;;;;;;;;;5092424;28;20220;-82
2022/01/17 11:05:19;;;;;;;6.35;3.58;;;;;;;;;;5090712;28;20220;-82
2022/01/17 11:07:49;;;;;;;4.10;2.00;;;;;;;;;;5090351;28;20200;-82
2022/01/17 11:10:23;;;;;;;2.75;2.30;;;;;;;;;;5090117;28;20205;-82
2022/01/17 11:12:53;;;;;;;4.18;2.67;;;;;;;;;;5089905;28;20228;-81
2022/01/17 11:15:23;;;;;;;2.65;2.45;;;;;;;;;;5090791;28;20205;-83
2022/01/17 11:17:56;;;;;;;2.63;2.28;;;;;;;;;;5090184;28;20204;-81
2022/01/17 11:20:26;;;;;;;2.33;2.15;;;;;;;;;;5090206;28;20296;-82
2022/01/17 11:22:57;;;;;;;2.67;2.17;;;;;;;;;;5091302;28;20659;-83
2022/01/17 11:25:28;;;;;;;2.05;1.95;;;;;;;;;;5091057;28;20224;-83
2022/01/17 11:27:56;;;;;;;2.63;2.30;;;;;;;;;;5089662;28;20216;-82
2022/01/17 11:30:25;;;;;;;2.78;2.58;;;;;;;;;;5091647;28;20204;-83
2022/01/17 11:32:55;;;;;;;2.40;2.20;;;;;;;;;;5091345;28;20314;-82
2022/01/17 11:35:23;;;;;;;1.92;1.83;;;;;;;;;;5091219;28;20209;-83
2022/01/17 11:37:55;;;;;;;2.42;2.22;;;;;;;;;;5090612;28;20201;-82
2022/01/17 11:40:28;;;;;;;2.40;2.20;;;;;;;;;;5091679;28;20205;-83
2022/01/17 11:42:55;;;;;;;3.95;3.60;;;;;;;;;;5090302;28;20221;-83
2022/01/17 11:45:38;;;;;;;2.45;2.25;;;;;;;;;;5090121;28;20217;-82
2022/01/17 11:48:10;;;;;;;3.17;2.30;;;;;;;;;;5090148;28;20256;-84
2022/01/17 11:50:45;;;;;;;4.63;3.30;;;;;;;;;;5089824;28;20201;-83
2022/01/17 11:53:46;;;;;;;2.65;2.45;;;;;;;;;;5089454;28;20251;-83
2022/01/17 11:56:43;;;;;;;3.30;3.00;;;;;;;;;;5077800;28;20252;-84
2022/01/17 11:59:39;;;;;;;3.00;2.80;;;;;;;;;;5086202;28;20548;-83
2022/01/17 12:02:20;;;;;;;2.75;2.42;;;;;;;;;;5089869;28;20216;-84
2022/01/17 12:05:32;;;;;;;2.85;2.40;;;;;;;;;;5090300;28;20225;-82
2022/01/17 12:07:59;;;;;;;1.90;1.80;;;;;;;;;;5086045;28;20215;-83
2022/01/17 12:10:29;;;;;;;3.00;2.80;;;;;;;;;;5090698;28;20673;-84
2022/01/17 12:13:42;;;;;;;2.72;2.47;;;;;;;;;;5090857;28;20221;-84
2022/01/17 12:16:30;;;;;;;3.22;1.90;;;;;;;;;;5090516;28;20197;-83
2022/01/17 12:19:09;;;;;;;2.97;2.70;;;;;;;;;;5090047;28;20592;-84
2022/01/17 12:21:40;;;;;;;2.85;2.60;;;;;;;;;;5090324;28;20216;-81
2022/01/17 12:24:41;;;;;;;3.25;2.78;;;;;;;;;;5088901;28;20224;-84
2022/01/17 12:27:18;;;;;;;2.05;1.85;;;;;;;;;;5088203;28;20246;-83
2022/01/17 12:29:56;;;;;;;2.63;2.50;;;;;;;;;;5086577;28;20205;-84
2022/01/17 12:32:54;;;;;;;2.30;2.10;;;;;;;;;;5087535;28;20228;-84
2022/01/17 12:35:27;;;;;;;2.72;2.53;;;;;;;;;;5087465;28;20220;-83
2022/01/17 12:38:04;;;;;;;3.20;2.83;;;;;;;;;;5087358;28;20651;-83
2022/01/17 12:40:34;;;;;;;2.20;2.00;;;;;;;;;;5088530;28;20232;-82
2022/01/17 12:43:05;;;;;;;2.72;2.53;;;;;;;;;;5087815;28;20727;-82
2022/01/17 12:45:38;;;;;;;2.38;2.17;;;;;;;;;;5087550;28;20224;-82
2022/01/17 12:48:09;;;;;;;2.22;2.03;;;;;;;;;;5087445;28;20212;-82
2022/01/17 12:50:41;;;;;;;2.70;2.50;;;;;;;;;;5088198;28;20201;-82
2022/01/17 12:53:12;;;;;;;3.80;2.88;;;;;;;;;;5087309;28;20274;-83
2022/01/17 12:55:43;;;;;;;2.55;2.35;;;;;;;;;;5087053;28;20553;-83
2022/01/17 12:58:17;;;;;;;3.58;2.25;;;;;;;;;;5087934;28;20211;-83
2022/01/17 13:00:51;;;;;;;2.63;2.42;;;;;;;;;;5087312;28;20196;-82
2022/01/17 13:03:20;;;;;;;2.63;2.40;;;;;;;;;;5087518;28;20290;-83
2022/01/17 13:05:49;;;;;;;2.80;2.10;;;;;;;;;;5087958;28;20224;-83
2022/01/17 13:08:17;;;;;;;3.22;2.92;;;;;;;;;;5086726;28;20201;-81
2022/01/17 13:10:44;;;;;;;2.17;2.03;;;;;;;;;;5087589;28;20211;-82
2022/01/17 13:13:16;;;;;;;3.78;3.35;;;;;;;;;;5087280;28;20225;-83
2022/01/17 13:15:58;;;;;;;2.22;2.00;;;;;;;;;;5087299;28;20236;-82
2022/01/17 13:18:27;;;;;;;2.60;2.40;;;;;;;;;;5086714;28;20212;-82
2022/01/17 13:20:56;;;;;;;5.68;4.63;;;;;;;;;;5086722;28;20216;-82
2022/01/17 13:23:31;;;;;;;3.78;3.22;;;;;;;;;;5086736;28;20221;-82
2022/01/17 13:25:59;;;;;;;7.22;4.00;;;;;;;;;;5087739;28;20224;-83
2022/01/17 13:28:27;;;;;;;4.38;3.30;;;;;;;;;;5087828;28;20272;-82
2022/01/17 13:30:55;;;;;;;4.10;3.45;;;;;;;;;;5087932;28;20217;-82
2022/01/17 13:33:22;;;;;;;3.95;2.90;;;;;;;;;;5111406;23;20222;-89
2022/01/17 13:35:55;;;;;;;2.50;2.30;;;;;;;;;;5059606;28;20218;-88
2022/01/17 13:38:23;;;;;;;2.72;2.50;;;;;;;;;;5061630;28;20189;-88
2022/01/17 13:40:53;;;;;;;3.20;2.72;;;;;;;;;;5061511;28;20194;-89
2022/01/17 13:43:20;;;;;;;4.15;2.17;;;;;;;;;;5061660;28;20205;-90
2022/01/17 13:45:51;;;;;;;5.10;3.60;;;;;;;;;;5078593;23;20236;-84
2022/01/17 13:48:21;;;;;;;3.10;2.38;;;;;;;;;;5074565;28;20451;-83
2022/01/17 13:50:54;;;;;;;3.00;2.72;;;;;;;;;;5074121;28;20204;-84
2022/01/17 13:53:24;;;;;;;3.15;2.58;;;;;;;;;;5073957;28;20275;-82
2022/01/17 13:55:53;;;;;;;6.95;3.38;;;;;;;;;;5073025;28;20197;-84
2022/01/17 13:58:21;;;;;;;3.55;2.33;;;;;;;;;;5073889;28;20200;-83
2022/01/17 14:00:52;;;;;;;3.80;2.80;;;;;;;;;;5073592;28;20496;-84
2022/01/17 14:03:21;;;;;;;6.13;4.68;;;;;;;;;;5072910;28;20315;-83
2022/01/17 14:05:51;;;;;;;4.20;2.60;;;;;;;;;;5073611;28;20209;-83
2022/01/17 14:08:25;;;;;;;6.07;2.83;;;;;;;;;;5073705;28;20197;-84
2022/01/17 14:10:59;;;;;;;8.40;3.72;;;;;;;;;;5073491;28;20204;-84
2022/01/17 14:13:36;;;;;;;3.63;2.45;;;;;;;;;;5073590;28;20220;-84
2022/01/17 14:16:25;;;;;;;7.25;2.78;;;;;;;;;;5073171;28;20689;-83
2022/01/17 14:18:54;;;;;;;6.70;2.88;;;;;;;;;;5073610;28;20212;-84
2022/01/17 14:21:25;;;;;;;5.10;3.10;;;;;;;;;;5073637;28;20203;-86
2022/01/17 14:24:07;;;;;;;5.28;2.47;;;;;;;;;;5073183;28;20221;-84
2022/01/17 14:26:36;;;;;;;7.47;2.67;;;;;;;;;;5073606;28;20599;-84
2022/01/17 14:29:04;;;;;;;10.68;4.03;;;;;;;;;;5073770;28;20204;-83
2022/01/17 14:31:35;;;;;;;6.65;3.83;;;;;;;;;;5072621;28;20622;-84
2022/01/17 14:34:15;;;;;;;4.93;3.15;;;;;;;;;;5073357;28;20252;-84
2022/01/17 14:36:44;;;;;;;8.68;4.50;;;;;;;;;;5073257;28;20288;-84
2022/01/17 14:39:13;;;;;;;6.22;3.47;;;;;;;;;;5073954;28;20278;-84
2022/01/17 14:41:48;;;;;;;4.97;3.03;;;;;;;;;;5073370;28;20215;-84
2022/01/17 14:44:18;;;;;;;5.10;3.22;;;;;;;;;;5073724;28;20301;-84
2022/01/17 14:46:47;;;;;;;5.45;3.28;;;;;;;;;;5073660;28;20220;-84
2022/01/17 14:49:16;;;;;;;3.35;2.10;;;;;;;;;;5073487;28;20278;-84
2022/01/17 14:51:47;;;;;;;5.97;2.97;;;;;;;;;;5073266;28;20201;-84
2022/01/17 14:54:25;;;;;;;3.80;2.30;;;;;;;;;;5073297;28;20252;-84
2022/01/17 14:59:52;;;;;;;7.25;2.67;;;;;;;;;;5073601;28;20575;-83
2022/01/17 15:02:26;;;;;;;5.32;3.88;;;;;;;;;;5073300;28;20557;-82
2022/01/17 15:04:53;;;;;;;5.43;3.65;;;;;;;;;;5073258;28;20704;-83
2022/01/17 15:07:21;;;;;;;6.90;3.25;;;;;;;;;;5072997;28;20643;-85
2022/01/17 15:09:50;;;;;;;7.22;3.03;;;;;;;;;;5072962;28;20209;-84
2022/01/17 15:12:18;;;;;;;13.30;3.47;;;;;;;;;;5073027;28;20685;-83
2022/01/17 15:14:46;;;;;;;7.82;3.20;;;;;;;;;;5073455;28;20217;-84